Laurens, Iowa
Current Conditions -  °F | °C
As of 7:35 PM on Wednesday 26 Nov 2014 (Local Time) from KSLB Reporting Station
Overcast Overcast  
Wind Chill:   Ceiling: 1000
Heat Index: 18°   Visibility: 10mi
Dew Point: 14°   Wind: 15mph
Humidity: 86%   Direction: 340°NNW
Pressure: 30.35"   Gusts: NA
Location:  42.85°N, 94.85°W
Report Text: KSLB 270135Z AUTO 34013KT 10SM OVC010 M08/M10 A3035 RMK AO2
Loading
Personal Weather Stations






























Interactive Weather Map New forecast layout! Learn more

10-Day Weather Forecast

Advertisements
Track Severe Weather on mobile